createdAt,value
2023-03-06T00:01:29.626Z,101045.69
2023-03-06T00:03:57.640Z,101055.63
2023-03-06T00:06:25.839Z,101050.22
2023-03-06T00:08:54.208Z,101049.56
2023-03-06T00:11:22.230Z,101053.91
2023-03-06T00:13:53.147Z,101042.50
2023-03-06T00:16:21.155Z,101047.59
2023-03-06T00:18:49.069Z,101050.25
2023-03-06T00:21:17.034Z,101051.09
2023-03-06T00:23:45.195Z,101054.63
2023-03-06T00:26:13.199Z,101044.22
2023-03-06T00:28:43.294Z,101029.75
2023-03-06T00:31:12.665Z,101037.50
2023-03-06T00:33:40.711Z,101034.47
2023-03-06T00:36:09.309Z,101027.06
2023-03-06T00:38:37.380Z,101027.41
2023-03-06T00:41:09.511Z,101019.34
2023-03-06T00:43:37.489Z,101020.38
2023-03-06T00:46:06.022Z,101014.69
2023-03-06T00:48:35.877Z,101011.97
2023-03-06T00:51:03.941Z,101006.59
2023-03-06T00:53:31.904Z,101009.94
2023-03-06T00:55:59.849Z,101007.56
2023-03-06T00:58:27.974Z,101006.94
2023-03-06T01:00:57.900Z,101000.69
2023-03-06T01:03:25.843Z,100996.81
2023-03-06T01:05:55.267Z,100993.81
2023-03-06T01:08:23.274Z,100997.34
2023-03-06T01:10:51.425Z,100997.16
2023-03-06T01:13:19.461Z,100993.47
2023-03-06T01:15:47.521Z,100993.81
2023-03-06T01:18:15.638Z,100985.56
2023-03-06T01:20:43.628Z,100989.06
2023-03-06T01:23:13.045Z,100992.44
2023-03-06T01:25:40.994Z,100986.03
2023-03-06T01:28:09.006Z,100991.41
2023-03-06T01:30:37.382Z,100984.38
2023-03-06T01:33:05.304Z,100983.19
2023-03-06T01:35:33.370Z,100976.97
2023-03-06T01:38:01.307Z,100972.59
2023-03-06T01:40:32.416Z,100969.91
2023-03-06T01:43:00.460Z,100972.28
2023-03-06T01:46:20.512Z,100954.13
2023-03-06T01:48:51.339Z,100951.09
2023-03-06T01:51:19.453Z,100955.31
2023-03-06T01:53:49.377Z,100950.97
2023-03-06T01:56:19.203Z,100953.19
2023-03-06T01:58:49.751Z,100948.63
2023-03-06T02:01:18.952Z,100951.84
2023-03-06T02:03:49.695Z,100947.16
2023-03-06T02:06:21.698Z,100945.84
2023-03-06T02:08:52.730Z,100947.88
2023-03-06T02:11:46.962Z,100947.56
2023-03-06T02:14:17.907Z,100942.22
2023-03-06T02:16:46.225Z,100940.88
2023-03-06T02:19:30.012Z,100935.38
2023-03-06T02:21:58.059Z,100938.22
2023-03-06T02:24:36.129Z,100932.38
2023-03-06T02:27:07.809Z,100933.91
2023-03-06T02:29:36.339Z,100931.91
2023-03-06T02:32:05.592Z,100939.81
2023-03-06T02:34:51.257Z,100934.63
2023-03-06T02:37:19.186Z,100939.34
2023-03-06T02:39:51.157Z,100926.59
2023-03-06T02:42:22.688Z,100921.22
2023-03-06T02:44:50.778Z,100925.63
2023-03-06T02:47:18.750Z,100927.63
2023-03-06T02:49:46.857Z,100916.91
2023-03-06T02:52:14.828Z,100925.63
2023-03-06T02:54:42.797Z,100918.75
2023-03-06T02:57:11.136Z,100917.59
2023-03-06T02:59:40.886Z,100913.75
2023-03-06T03:02:08.800Z,100919.47
2023-03-06T03:04:36.880Z,100913.75
2023-03-06T03:07:05.202Z,100914.09
2023-03-06T03:09:36.921Z,100901.00
2023-03-06T03:12:06.660Z,100905.88
2023-03-06T03:14:35.093Z,100902.84
2023-03-06T03:17:05.611Z,100901.19
2023-03-06T03:19:33.922Z,100902.00
2023-03-06T03:22:01.968Z,100891.13
2023-03-06T03:24:29.942Z,100895.13
2023-03-06T03:26:58.024Z,100892.81
2023-03-06T03:29:26.353Z,100889.44
2023-03-06T03:31:55.244Z,100881.91
2023-03-06T03:34:27.518Z,100877.88
2023-03-06T03:36:55.943Z,100883.09
2023-03-06T03:39:24.137Z,100881.75
2023-03-06T03:41:52.144Z,100873.88
2023-03-06T03:44:20.956Z,100873.34
2023-03-06T03:46:49.900Z,100867.66
2023-03-06T03:49:22.007Z,100863.97
2023-03-06T03:51:52.727Z,100859.78
2023-03-06T03:54:22.122Z,100860.28
2023-03-06T03:56:51.852Z,100859.59
2023-03-06T03:59:26.037Z,100859.09
2023-03-06T04:02:17.105Z,100860.94
2023-03-06T04:04:56.145Z,100861.28
2023-03-06T04:07:25.746Z,100859.91
2023-03-06T04:09:54.808Z,100854.56
2023-03-06T04:12:23.280Z,100856.22
2023-03-06T04:14:51.604Z,100851.19
2023-03-06T04:17:20.098Z,100843.16
2023-03-06T04:19:48.897Z,100842.16
2023-03-06T04:22:18.149Z,100833.59
2023-03-06T04:24:49.408Z,100832.78
2023-03-06T04:27:18.568Z,100837.44
2023-03-06T04:29:46.581Z,100828.75
2023-03-06T04:32:14.751Z,100827.25
2023-03-06T04:34:42.908Z,100822.03
2023-03-06T04:37:19.087Z,100822.88
2023-03-06T04:39:48.456Z,100824.38
2023-03-06T04:42:16.456Z,100808.31
2023-03-06T04:44:44.622Z,100810.84
2023-03-06T04:47:13.199Z,100802.59
2023-03-06T04:49:41.307Z,100797.59
2023-03-06T04:52:09.308Z,100789.88
2023-03-06T04:54:37.386Z,100783.19
2023-03-06T04:57:06.754Z,100771.63
2023-03-06T04:59:34.750Z,100777.50
2023-03-06T05:02:02.853Z,100787.84
2023-03-06T05:04:31.886Z,100775.16
2023-03-06T05:06:59.812Z,100787.16
2023-03-06T05:09:27.750Z,100784.81
2023-03-06T05:11:55.793Z,100785.31
2023-03-06T05:14:25.107Z,100783.78
2023-03-06T05:16:53.033Z,100781.13
2023-03-06T05:19:20.960Z,100787.16
2023-03-06T05:21:48.984Z,100774.44
2023-03-06T05:24:16.924Z,100778.13
2023-03-06T05:26:44.841Z,100781.47
2023-03-06T05:29:12.814Z,100779.47
2023-03-06T05:31:42.183Z,100780.31
2023-03-06T05:34:13.985Z,100781.31
2023-03-06T05:36:42.551Z,100791.19
2023-03-06T05:39:11.028Z,100772.44
2023-03-06T05:41:38.961Z,100774.28
2023-03-06T05:44:06.933Z,100779.97
2023-03-06T05:46:34.906Z,100771.78
2023-03-06T05:49:04.215Z,100766.94
2023-03-06T05:51:32.649Z,100769.47
2023-03-06T05:54:00.670Z,100756.41
2023-03-06T05:56:28.598Z,100756.41
2023-03-06T05:58:56.502Z,100754.72
2023-03-06T06:01:25.386Z,100744.53
2023-03-06T06:03:53.505Z,100747.38
2023-03-06T06:06:22.877Z,100740.34
2023-03-06T06:08:50.898Z,100740.34
2023-03-06T06:11:20.825Z,100739.19
2023-03-06T06:13:49.738Z,100724.44
2023-03-06T06:16:19.318Z,100731.81
2023-03-06T06:18:47.636Z,100729.66
2023-03-06T06:25:23.823Z,100742.38
2023-03-06T06:27:51.739Z,100739.19
2023-03-06T06:30:20.072Z,100737.50
2023-03-06T06:32:48.242Z,100736.34
2023-03-06T06:35:16.855Z,100737.50
2023-03-06T06:37:44.927Z,100734.19
2023-03-06T06:40:13.555Z,100727.66
2023-03-06T06:42:44.030Z,100723.97
2023-03-06T06:45:12.772Z,100726.28
2023-03-06T06:47:41.664Z,100730.97
2023-03-06T06:50:13.029Z,100725.63
2023-03-06T06:52:41.195Z,100713.03
2023-03-06T06:55:10.124Z,100713.91
2023-03-06T06:57:38.099Z,100708.53
2023-03-06T07:00:09.528Z,100708.84
2023-03-06T07:02:37.560Z,100712.50
2023-03-06T07:05:06.232Z,100707.66
2023-03-06T07:07:36.260Z,100701.25
2023-03-06T07:10:05.772Z,100696.72
2023-03-06T07:12:35.220Z,100696.03
2023-03-06T07:15:04.131Z,100697.88
2023-03-06T07:17:33.602Z,100701.38
2023-03-06T07:20:01.585Z,100694.81
2023-03-06T07:22:35.858Z,100686.28
2023-03-06T07:25:10.418Z,100686.94
2023-03-06T07:27:38.590Z,100688.25
2023-03-06T07:30:07.581Z,100688.56
2023-03-06T07:32:36.926Z,100686.34
2023-03-06T07:35:19.314Z,100689.00
2023-03-06T07:37:48.140Z,100683.16
2023-03-06T07:40:16.463Z,100682.44
2023-03-06T07:42:44.414Z,100678.25
2023-03-06T07:45:15.374Z,100691.16
2023-03-06T07:47:44.854Z,100680.94
2023-03-06T07:50:13.457Z,100685.09
2023-03-06T07:52:41.389Z,100678.53
2023-03-06T07:55:10.888Z,100683.06
2023-03-06T07:57:39.564Z,100674.97
2023-03-06T08:00:11.860Z,100672.59
2023-03-06T08:02:44.704Z,100663.53
2023-03-06T08:05:15.272Z,100657.81
2023-03-06T08:07:43.405Z,100656.50
2023-03-06T08:10:14.939Z,100652.72
2023-03-06T08:12:43.029Z,100657.78
2023-03-06T08:15:12.357Z,100654.34
2023-03-06T08:17:40.508Z,100648.31
2023-03-06T08:20:11.441Z,100643.63
2023-03-06T08:22:39.811Z,100651.09
2023-03-06T08:25:09.224Z,100647.91
2023-03-06T08:27:37.802Z,100644.03
2023-03-06T08:30:06.897Z,100639.78
2023-03-06T08:32:36.058Z,100637.75
2023-03-06T08:35:04.706Z,100641.41
2023-03-06T08:37:34.088Z,100635.66
2023-03-06T08:40:04.589Z,100642.53
2023-03-06T08:42:32.711Z,100631.72
2023-03-06T08:45:00.749Z,100630.44
2023-03-06T08:47:28.788Z,100625.63
2023-03-06T08:49:57.175Z,100623.56
2023-03-06T08:52:26.263Z,100618.94
2023-03-06T08:54:55.551Z,100613.00
2023-03-06T08:57:23.943Z,100615.81
2023-03-06T08:59:51.882Z,100623.03
2023-03-06T09:02:19.996Z,100623.69
2023-03-06T09:04:48.006Z,100625.28
2023-03-06T09:07:15.960Z,100629.44
2023-03-06T09:09:44.117Z,100624.16
2023-03-06T09:12:13.581Z,100622.72
2023-03-06T09:14:41.537Z,100617.63
2023-03-06T09:17:09.547Z,100620.59
2023-03-06T09:19:37.741Z,100616.53
2023-03-06T09:22:05.722Z,100615.78
2023-03-06T09:24:34.242Z,100605.56
2023-03-06T09:27:02.287Z,100608.03
2023-03-06T09:29:31.588Z,100610.53
2023-03-06T09:31:59.798Z,100606.16
2023-03-06T09:34:28.229Z,100604.50
2023-03-06T09:36:57.650Z,100602.31
2023-03-06T09:39:27.220Z,100600.09
2023-03-06T09:41:57.435Z,100595.19
2023-03-06T09:44:28.659Z,100591.63
2023-03-06T09:47:39.347Z,100585.13
2023-03-06T09:50:23.051Z,100581.59
2023-03-06T09:53:04.129Z,100579.13
2023-03-06T09:55:34.221Z,100581.78
2023-03-06T09:58:07.368Z,100568.13
2023-03-06T10:00:39.691Z,100575.84
2023-03-06T10:03:18.889Z,100569.06
2023-03-06T10:05:51.081Z,100566.34
2023-03-06T10:08:25.822Z,100559.13
2023-03-06T10:11:01.917Z,100558.09
2023-03-06T10:13:38.326Z,100559.00
2023-03-06T10:16:17.135Z,100560.25
2023-03-06T10:18:46.739Z,100553.47
2023-03-06T10:21:26.116Z,100555.09
2023-03-06T10:23:55.628Z,100546.66
2023-03-06T10:26:26.803Z,100552.69
2023-03-06T10:29:10.016Z,100550.00
2023-03-06T10:31:41.085Z,100549.81
2023-03-06T10:34:16.835Z,100536.13
2023-03-06T10:36:44.967Z,100536.56
2023-03-06T10:39:17.202Z,100534.69
2023-03-06T10:41:46.325Z,100537.41
2023-03-06T10:44:26.916Z,100534.50
2023-03-06T10:46:56.360Z,100526.59
2023-03-06T10:49:32.166Z,100528.47
2023-03-06T10:52:03.105Z,100518.50
2023-03-06T10:54:33.089Z,100517.25
2023-03-06T10:57:19.224Z,100511.63
2023-03-06T10:59:53.532Z,100518.28
2023-03-06T11:02:28.971Z,100512.69
2023-03-06T11:05:00.047Z,100503.53
2023-03-06T11:07:28.851Z,100506.44
2023-03-06T11:10:03.724Z,100503.31
2023-03-06T11:12:33.406Z,100501.25
2023-03-06T11:15:21.986Z,100507.50
2023-03-06T11:18:03.626Z,100500.84
2023-03-06T11:20:50.519Z,100503.34
2023-03-06T11:23:29.091Z,100500.41
2023-03-06T11:26:02.248Z,100487.31
2023-03-06T11:28:32.863Z,100482.75
2023-03-06T11:31:04.959Z,100488.56
2023-03-06T11:33:40.282Z,100484.53
2023-03-06T11:36:16.464Z,100481.47
2023-03-06T11:38:50.038Z,100478.75
2023-03-06T11:41:29.871Z,100480.34
2023-03-06T11:44:04.380Z,100481.19
2023-03-06T11:46:38.698Z,100480.75
2023-03-06T11:49:16.805Z,100470.16
2023-03-06T11:51:51.503Z,100468.91
2023-03-06T11:54:19.665Z,100460.16
2023-03-06T11:56:56.046Z,100459.47
2023-03-06T11:59:55.955Z,100454.88
2023-03-06T12:02:39.328Z,100453.19
2023-03-06T12:05:28.456Z,100437.75
2023-03-06T12:08:04.481Z,100440.22
2023-03-06T12:10:37.185Z,100430.16
2023-03-06T12:13:27.828Z,100433.41
2023-03-06T12:16:18.137Z,100432.66
2023-03-06T12:18:54.068Z,100425.09
2023-03-06T12:21:32.486Z,100424.84
2023-03-06T12:24:12.723Z,100420.56
2023-03-06T12:27:02.876Z,100413.44
2023-03-06T12:29:49.067Z,100414.91
2023-03-06T12:32:30.405Z,100408.50
2023-03-06T12:35:24.304Z,100409.56
2023-03-06T12:38:02.220Z,100399.94
2023-03-06T12:40:48.703Z,100397.09
2023-03-06T12:43:50.142Z,100395.38
2023-03-06T12:46:21.576Z,100379.69
2023-03-06T12:49:05.336Z,100377.91
2023-03-06T12:51:34.745Z,100372.50
2023-03-06T12:54:04.139Z,100369.50
2023-03-06T12:56:35.343Z,100362.44
2023-03-06T12:59:03.361Z,100361.81
2023-03-06T13:01:57.506Z,100362.13
2023-03-06T13:04:36.402Z,100363.22
2023-03-06T13:07:22.858Z,100347.47
2023-03-06T13:10:06.614Z,100353.69
2023-03-06T13:12:50.396Z,100347.53
2023-03-06T13:15:34.708Z,100345.50
2023-03-06T13:18:03.438Z,100341.78
2023-03-06T13:20:36.521Z,100338.84
2023-03-06T13:23:53.034Z,100338.47
2023-03-06T13:26:50.724Z,100338.00
2023-03-06T13:29:52.463Z,100325.03
2023-03-06T13:32:31.922Z,100327.69
2023-03-06T13:35:00.113Z,100308.53
2023-03-06T13:37:52.870Z,100302.81
2023-03-06T13:40:33.559Z,100304.78
2023-03-06T13:43:18.247Z,100306.66
2023-03-06T13:45:49.022Z,100306.81
2023-03-06T13:48:44.174Z,100305.03
2023-03-06T13:52:20.689Z,100293.94
2023-03-06T13:54:59.417Z,100293.94
2023-03-06T13:57:49.107Z,100297.03
2023-03-06T14:00:33.659Z,100282.06
2023-03-06T14:03:23.365Z,100289.38
2023-03-06T14:05:52.765Z,100282.38
2023-03-06T14:08:22.631Z,100274.91
2023-03-06T14:11:01.683Z,100272.19
2023-03-06T14:13:45.424Z,100256.69
2023-03-06T14:16:21.048Z,100278.22
2023-03-06T14:18:51.630Z,100259.88
2023-03-06T14:21:30.455Z,100266.84
2023-03-06T14:24:00.787Z,100259.56
2023-03-06T14:26:30.899Z,100257.06
2023-03-06T14:29:00.560Z,100255.94
2023-03-06T14:31:31.591Z,100244.50
2023-03-06T14:34:01.687Z,100246.53
2023-03-06T14:36:35.193Z,100244.69
2023-03-06T14:39:08.817Z,100242.59
2023-03-06T14:41:37.975Z,100243.41
2023-03-06T14:44:21.607Z,100241.75
2023-03-06T14:46:51.642Z,100239.69
2023-03-06T14:49:22.614Z,100240.34
2023-03-06T14:51:51.847Z,100231.84
2023-03-06T14:54:23.362Z,100224.69
2023-03-06T14:56:54.614Z,100239.00
2023-03-06T14:59:26.938Z,100259.53
2023-03-06T15:02:00.161Z,100248.41
2023-03-06T15:04:32.666Z,100249.69
2023-03-06T15:07:01.133Z,100246.00
2023-03-06T15:09:32.712Z,100241.91
2023-03-06T15:12:02.909Z,100240.34
2023-03-06T15:14:34.273Z,100226.63
2023-03-06T15:17:24.996Z,100222.50
2023-03-06T15:19:56.378Z,100222.50
2023-03-06T15:22:30.791Z,100217.38
2023-03-06T15:25:20.352Z,100222.78
2023-03-06T15:27:54.408Z,100216.94
2023-03-06T15:30:25.109Z,100221.09
2023-03-06T15:32:53.365Z,100213.94
2023-03-06T15:35:31.970Z,100212.72
2023-03-06T15:38:00.610Z,100211.00
2023-03-06T15:40:31.190Z,100215.22
2023-03-06T15:43:00.007Z,100216.41
2023-03-06T15:45:29.955Z,100214.53
2023-03-06T15:47:58.016Z,100210.75
2023-03-06T15:50:29.053Z,100206.56
2023-03-06T15:52:58.591Z,100206.34
2023-03-06T15:55:26.959Z,100207.56
2023-03-06T15:57:58.618Z,100203.41
2023-03-06T16:00:29.318Z,100204.97
2023-03-06T16:04:12.525Z,100196.75
2023-03-06T16:06:40.622Z,100190.97
2023-03-06T16:09:10.668Z,100190.28
2023-03-06T16:11:43.896Z,100188.00
2023-03-06T16:14:24.041Z,100188.47
2023-03-06T16:16:54.126Z,100192.22
2023-03-06T16:19:26.375Z,100189.72
2023-03-06T16:21:56.052Z,100200.94
2023-03-06T16:24:26.230Z,100206.66
2023-03-06T16:26:55.448Z,100203.06
2023-03-06T16:29:25.409Z,100198.28
2023-03-06T16:31:55.094Z,100190.91
2023-03-06T16:34:23.256Z,100191.28
2023-03-06T16:36:51.695Z,100188.00
2023-03-06T16:39:22.398Z,100195.03
2023-03-06T16:41:52.051Z,100190.50
2023-03-06T16:44:20.610Z,100192.03
2023-03-06T16:46:50.894Z,100189.72
2023-03-06T16:49:21.032Z,100188.28
2023-03-06T16:51:49.302Z,100187.47
2023-03-06T16:54:17.441Z,100181.50
2023-03-06T16:56:45.944Z,100179.88
2023-03-06T16:59:15.300Z,100183.38
2023-03-06T17:01:43.898Z,100177.34
2023-03-06T17:04:12.576Z,100175.09
2023-03-06T17:06:41.748Z,100183.19
2023-03-06T17:09:11.114Z,100187.72
2023-03-06T17:11:39.596Z,100183.78
2023-03-06T17:14:07.855Z,100184.88
2023-03-06T17:16:40.290Z,100180.03
2023-03-06T17:19:08.422Z,100177.38
2023-03-06T17:21:38.446Z,100187.53
2023-03-06T17:24:07.320Z,100183.78
2023-03-06T17:27:26.164Z,100198.16
2023-03-06T17:29:56.977Z,100186.59
2023-03-06T17:32:27.109Z,100191.81
2023-03-06T17:34:55.390Z,100192.41
2023-03-06T17:37:23.420Z,100179.75
2023-03-06T17:39:51.488Z,100189.53
2023-03-06T17:42:19.486Z,100187.47
2023-03-06T17:44:47.962Z,100186.47
2023-03-06T17:47:15.934Z,100183.38
2023-03-06T17:49:45.541Z,100179.81
2023-03-06T17:52:13.511Z,100186.28
2023-03-06T17:54:41.526Z,100180.88
2023-03-06T17:57:09.503Z,100181.50
2023-03-06T17:59:37.475Z,100182.56
2023-03-06T18:02:06.436Z,100195.66
2023-03-06T18:04:34.588Z,100190.69
2023-03-06T18:07:04.088Z,100183.00
2023-03-06T18:09:32.418Z,100189.66
2023-03-06T18:12:00.368Z,100192.34
2023-03-06T18:14:28.344Z,100197.13
2023-03-06T18:16:56.328Z,100197.81
2023-03-06T18:19:24.319Z,100206.56
2023-03-06T18:21:52.417Z,100212.56
2023-03-06T18:24:21.796Z,100206.34
2023-03-06T18:26:49.921Z,100199.72
2023-03-06T18:29:17.893Z,100199.69
2023-03-06T18:31:49.259Z,100201.19
2023-03-06T18:34:17.987Z,100199.72
2023-03-06T18:36:47.272Z,100206.16
2023-03-06T18:39:15.993Z,100193.28
2023-03-06T18:41:45.429Z,100196.41
2023-03-06T18:44:15.097Z,100194.13
2023-03-06T18:46:43.249Z,100196.03
2023-03-06T18:49:12.619Z,100193.94
2023-03-06T18:51:40.752Z,100182.31
2023-03-06T18:54:09.659Z,100190.19
2023-03-06T18:56:39.424Z,100188.16
2023-03-06T18:59:08.923Z,100186.47
2023-03-06T19:01:37.777Z,100187.09
2023-03-06T19:04:06.314Z,100177.56
2023-03-06T19:06:34.501Z,100180.06
2023-03-06T19:09:02.607Z,100195.63
2023-03-06T19:11:31.951Z,100197.28
2023-03-06T19:14:00.486Z,100206.44
2023-03-06T19:16:31.211Z,100198.75
2023-03-06T19:19:00.531Z,100206.44
2023-03-06T19:21:29.353Z,100200.84
2023-03-06T19:23:58.117Z,100201.88
2023-03-06T19:26:27.048Z,100206.00
2023-03-06T19:28:55.108Z,100195.44
2023-03-06T19:31:25.948Z,100199.81
2023-03-06T19:33:57.683Z,100189.44
2023-03-06T19:36:28.898Z,100183.59
2023-03-06T19:38:57.823Z,100189.41
2023-03-06T19:41:26.585Z,100186.94
2023-03-06T19:43:56.824Z,100183.63
2023-03-06T19:46:26.224Z,100176.75
2023-03-06T19:49:05.662Z,100162.88
2023-03-06T19:51:33.640Z,100164.75
2023-03-06T19:54:01.644Z,100164.75
2023-03-06T19:56:31.901Z,100161.59
2023-03-06T19:59:00.096Z,100161.38
2023-03-06T20:01:29.117Z,100151.22
2023-03-06T20:03:59.992Z,100158.28
2023-03-06T20:06:29.826Z,100147.91
2023-03-06T20:08:58.298Z,100147.31
2023-03-06T20:11:30.324Z,100151.66
2023-03-06T20:14:00.799Z,100145.22
2023-03-06T20:16:30.037Z,100145.03
2023-03-06T20:19:01.166Z,100146.25
2023-03-06T20:21:31.107Z,100137.53
2023-03-06T20:23:59.326Z,100135.69
2023-03-06T20:26:29.501Z,100134.22
2023-03-06T20:28:59.197Z,100139.59
2023-03-06T20:31:30.263Z,100131.53
2023-03-06T20:34:00.240Z,100142.94
2023-03-06T20:36:30.102Z,100142.75
2023-03-06T20:39:00.777Z,100137.97
2023-03-06T20:41:30.815Z,100135.88
2023-03-06T20:44:00.549Z,100128.25
2023-03-06T20:46:28.878Z,100132.19
2023-03-06T20:48:58.148Z,100129.72
2023-03-06T20:51:29.051Z,100133.47
2023-03-06T20:53:57.516Z,100121.00
2023-03-06T20:56:27.469Z,100116.06
2023-03-06T20:58:55.418Z,100128.47
2023-03-06T21:01:24.937Z,100119.97
2023-03-06T21:03:53.340Z,100127.88
2023-03-06T21:06:22.150Z,100123.28
2023-03-06T21:08:51.716Z,100117.09
2023-03-06T21:11:19.701Z,100121.44
2023-03-06T21:13:47.778Z,100113.53
2023-03-06T21:16:18.460Z,100124.31
2023-03-06T21:18:46.865Z,100117.25
2023-03-06T21:21:18.437Z,100124.31
2023-03-06T21:23:47.239Z,100114.19
2023-03-06T21:26:18.479Z,100115.19
2023-03-06T21:28:46.691Z,100109.81
2023-03-06T21:31:16.910Z,100108.97
2023-03-06T21:33:47.598Z,100114.59
2023-03-06T21:36:19.606Z,100113.97
2023-03-06T21:38:48.706Z,100105.25
2023-03-06T21:41:20.335Z,100099.44
2023-03-06T21:43:48.356Z,100097.81
2023-03-06T21:46:16.354Z,100098.63
2023-03-06T21:48:44.617Z,100100.69
2023-03-06T21:51:15.815Z,100094.06
2023-03-06T21:53:44.946Z,100090.97
2023-03-06T21:56:14.168Z,100090.34
2023-03-06T21:58:43.599Z,100087.44
2023-03-06T22:01:11.738Z,100090.53
2023-03-06T22:03:40.075Z,100082.44
2023-03-06T22:06:10.079Z,100083.47
2023-03-06T22:08:38.067Z,100080.38
2023-03-06T22:11:07.329Z,100074.56
2023-03-06T22:13:35.282Z,100082.63
2023-03-06T22:16:05.613Z,100068.13
2023-03-06T22:18:33.982Z,100066.69
2023-03-06T22:21:02.101Z,100067.50
2023-03-06T22:23:30.064Z,100076.22
2023-03-06T22:26:02.573Z,100074.94
2023-03-06T22:28:30.637Z,100065.66
2023-03-06T22:31:07.339Z,100063.56
2023-03-06T22:33:35.334Z,100066.88
2023-03-06T22:36:06.278Z,100060.88
2023-03-06T22:38:34.635Z,100062.94
2023-03-06T22:41:02.823Z,100057.56
2023-03-06T22:43:31.124Z,100060.25
2023-03-06T22:46:02.075Z,100047.22
2023-03-06T22:48:31.983Z,100045.94
2023-03-06T22:51:03.735Z,100044.50
2023-03-06T22:53:32.001Z,100045.13
2023-03-06T22:56:00.405Z,100042.44
2023-03-06T22:58:34.281Z,100031.88
2023-03-06T23:01:06.452Z,100034.56
2023-03-06T23:03:36.211Z,100037.69
2023-03-06T23:06:07.530Z,100034.16
2023-03-06T23:08:35.712Z,100025.03
2023-03-06T23:11:03.610Z,100028.97
2023-03-06T23:13:50.350Z,100020.69
2023-03-06T23:16:37.860Z,100026.50
2023-03-06T23:19:26.690Z,100026.50
2023-03-06T23:22:14.379Z,100023.19
2023-03-06T23:25:01.253Z,100014.06
2023-03-06T23:27:29.478Z,100011.97
2023-03-06T23:29:59.121Z,100012.38
2023-03-06T23:32:27.420Z,100009.91
2023-03-06T23:34:56.780Z,100010.72
2023-03-06T23:37:24.891Z,100007.41
2023-03-06T23:39:53.025Z,100000.38
2023-03-06T23:42:21.050Z,100002.25
2023-03-06T23:44:49.400Z,100004.72
2023-03-06T23:47:20.025Z,100001.22
2023-03-06T23:49:48.037Z,100004.53
2023-03-06T23:52:17.361Z,100003.28
2023-03-06T23:54:45.269Z,100004.53
2023-03-06T23:57:13.237Z,99999.97
2023-03-06T23:59:41.147Z,100004.31
